Time;durP1;ratioP1;P1;durP2;ratioP2;P2;SDS_P1;SDS_P2;PMS_P1;PMS_P2;Temp;Humidity;BMP_temperature;BMP_pressure;BME280_temperature;BME280_humidity;BME280_pressure;Samples;Min_cycle;Max_cycle;Signal;HPM_P1;HPM_P2
2023/08/30 00:00:17;;;;;;;17.52;15.68;;;14.40;99.90;;;;;;5147799;27;20408;-76
2023/08/30 00:02:44;;;;;;;18.95;15.20;;;14.40;99.90;;;;;;5113487;28;20396;-76
2023/08/30 00:05:10;;;;;;;17.52;14.93;;;14.30;99.90;;;;;;5096830;28;20713;-76
2023/08/30 00:07:36;;;;;;;16.80;13.88;;;14.50;99.90;;;;;;5095423;28;20468;-76
2023/08/30 00:10:03;;;;;;;15.60;13.32;;;14.40;99.90;;;;;;5106132;28;20488;-76
2023/08/30 00:12:29;;;;;;;16.52;13.82;;;14.50;99.90;;;;;;5109882;28;20409;-76
2023/08/30 00:14:55;;;;;;;16.52;13.32;;;14.50;99.90;;;;;;5076145;28;20409;-76
2023/08/30 00:17:22;;;;;;;17.52;13.48;;;14.40;99.90;;;;;;5127165;27;20405;-76
2023/08/30 00:19:48;;;;;;;14.95;12.73;;;14.40;99.90;;;;;;5076521;28;20746;-76
2023/08/30 00:22:14;;;;;;;14.90;12.97;;;14.30;99.90;;;;;;5127078;27;20417;-76
2023/08/30 00:24:40;;;;;;;17.60;13.50;;;14.20;99.90;;;;;;5093023;28;20394;-76
2023/08/30 00:27:05;;;;;;;18.02;13.63;;;14.30;99.90;;;;;;5076100;28;21383;-76
2023/08/30 00:29:31;;;;;;;16.93;13.83;;;14.30;99.90;;;;;;5105070;27;20495;-75
2023/08/30 00:31:57;;;;;;;16.57;13.63;;;14.30;99.90;;;;;;5112920;28;20400;-76
2023/08/30 00:34:23;;;;;;;17.38;13.43;;;14.40;99.90;;;;;;5112972;28;20412;-76
2023/08/30 00:36:48;;;;;;;16.63;13.38;;;14.30;99.90;;;;;;5079225;28;20407;-76
2023/08/30 00:39:14;;;;;;;14.45;12.77;;;14.10;99.90;;;;;;5083113;28;20426;-76
2023/08/30 00:41:40;;;;;;;17.83;13.07;;;14.10;99.90;;;;;;5075637;28;20478;-75
2023/08/30 00:44:06;;;;;;;17.02;12.93;;;14.10;99.90;;;;;;5075544;28;20410;-76
2023/08/30 00:46:33;;;;;;;18.27;13.53;;;13.90;99.90;;;;;;5075557;28;20429;-76
2023/08/30 00:49:00;;;;;;;16.65;13.35;;;13.90;99.90;;;;;;5092321;28;20440;-76
2023/08/30 00:51:27;;;;;;;15.13;12.57;;;13.90;99.90;;;;;;5126385;27;20398;-76
2023/08/30 00:53:54;;;;;;;16.63;12.65;;;13.90;99.90;;;;;;5106202;28;20493;-76
2023/08/30 00:56:20;;;;;;;17.98;13.27;;;13.90;99.90;;;;;;5112754;28;20403;-76
2023/08/30 00:58:49;;;;;;;17.08;12.40;;;13.80;99.90;;;;;;5112701;28;20888;-76
2023/08/30 01:01:16;;;;;;;16.45;12.63;;;14.00;99.90;;;;;;5112449;28;20533;-76
2023/08/30 01:03:41;;;;;;;16.98;13.00;;;14.10;99.90;;;;;;5112021;28;20404;-76
2023/08/30 01:06:07;;;;;;;17.73;12.73;;;13.90;99.90;;;;;;5109896;28;20483;-76
2023/08/30 01:08:35;;;;;;;15.97;12.87;;;14.00;99.90;;;;;;5111333;28;20978;-76
2023/08/30 01:11:38;;;;;;;15.90;13.20;;;14.10;99.90;;;;;;5096005;28;20434;-76
2023/08/30 01:14:11;;;;;;;16.60;13.70;;;13.90;99.90;;;;;;5064700;28;20401;-76
2023/08/30 01:16:38;;;;;;;15.45;12.93;;;13.70;99.90;;;;;;5112202;28;20887;-75
2023/08/30 01:19:14;;;;;;;16.92;12.88;;;13.80;99.90;;;;;;5112328;28;20892;-76
2023/08/30 01:21:53;;;;;;;15.98;13.07;;;13.70;99.90;;;;;;5095188;28;20448;-76
2023/08/30 01:24:44;;;;;;;16.63;12.82;;;13.70;99.90;;;;;;5114269;28;20378;-76
2023/08/30 01:27:11;;;;;;;17.30;13.52;;;13.70;99.90;;;;;;5106880;28;20422;-76
2023/08/30 01:29:40;;;;;;;17.17;13.80;;;13.70;99.90;;;;;;5077834;28;20432;-75
2023/08/30 01:32:08;;;;;;;18.05;13.63;;;13.60;99.90;;;;;;5093071;28;20398;-76
2023/08/30 01:34:38;;;;;;;18.52;14.02;;;13.80;99.90;;;;;;5126781;27;20401;-76
2023/08/30 01:37:08;;;;;;;18.02;14.30;;;13.60;99.90;;;;;;5129336;27;20500;-76
2023/08/30 01:39:36;;;;;;;17.08;14.27;;;13.50;99.90;;;;;;5105021;28;20418;-75
2023/08/30 01:42:03;;;;;;;17.33;15.18;;;13.60;99.90;;;;;;5148142;27;20402;-76
2023/08/30 01:44:30;;;;;;;20.95;15.35;;;13.70;99.90;;;;;;5096178;28;20413;-76
2023/08/30 01:46:57;;;;;;;18.20;14.93;;;13.50;99.90;;;;;;5093461;28;20793;-75
2023/08/30 01:49:25;;;;;;;19.20;14.80;;;13.60;99.90;;;;;;5109984;28;20455;-76
2023/08/30 01:51:52;;;;;;;18.73;15.23;;;13.60;99.90;;;;;;5092618;28;20390;-76
2023/08/30 01:54:18;;;;;;;17.42;14.77;;;13.60;99.90;;;;;;5092338;28;20398;-76
2023/08/30 01:56:46;;;;;;;19.17;15.02;;;13.60;99.90;;;;;;5075874;28;20409;-76
2023/08/30 01:59:12;;;;;;;20.20;15.50;;;13.60;99.90;;;;;;5092224;28;20444;-76
2023/08/30 02:01:38;;;;;;;17.88;14.77;;;13.60;99.90;;;;;;5075055;28;20417;-76
2023/08/30 02:04:04;;;;;;;18.27;14.48;;;13.70;99.90;;;;;;5109596;28;20398;-75
2023/08/30 02:06:54;;;;;;;17.23;14.02;;;13.80;99.90;;;;;;5075778;28;20453;-76
2023/08/30 02:09:40;;;;;;;16.13;13.98;;;13.70;99.90;;;;;;5126615;27;20451;-76
2023/08/30 02:12:11;;;;;;;18.27;14.77;;;13.80;99.90;;;;;;5126498;27;20426;-76
2023/08/30 02:14:39;;;;;;;19.00;14.48;;;13.80;99.90;;;;;;5125063;27;20912;-76
2023/08/30 02:17:06;;;;;;;18.27;14.40;;;13.50;99.90;;;;;;5125978;27;20404;-76
2023/08/30 02:19:33;;;;;;;17.67;14.50;;;13.60;99.90;;;;;;5075639;28;20723;-76
2023/08/30 02:21:59;;;;;;;16.88;13.95;;;13.60;99.90;;;;;;5074453;28;20437;-76
2023/08/30 02:24:25;;;;;;;17.95;14.27;;;13.60;99.90;;;;;;5075310;28;20405;-76
2023/08/30 02:26:50;;;;;;;17.67;14.18;;;13.60;99.90;;;;;;5075213;28;20579;-76
2023/08/30 02:29:16;;;;;;;16.90;14.50;;;13.60;99.90;;;;;;5100291;28;20424;-76
2023/08/30 02:31:42;;;;;;;18.97;14.23;;;;;;;;;;5092480;28;20475;-76
2023/08/30 02:34:08;;;;;;;17.80;13.95;;;13.50;99.90;;;;;;5093898;28;20399;-76
2023/08/30 02:36:33;;;;;;;17.15;14.32;;;13.50;99.90;;;;;;5110741;28;20400;-76
2023/08/30 02:38:59;;;;;;;18.07;14.60;;;13.20;99.90;;;;;;5093629;28;20412;-76
2023/08/30 02:41:25;;;;;;;21.47;14.80;;;13.40;99.90;;;;;;5106354;28;20488;-75
2023/08/30 02:43:50;;;;;;;21.80;15.25;;;13.40;99.90;;;;;;5090467;28;20443;-76
2023/08/30 02:46:16;;;;;;;16.67;14.18;;;13.10;99.90;;;;;;5073642;28;20465;-76
2023/08/30 02:48:42;;;;;;;18.52;13.90;;;13.10;99.90;;;;;;5090400;28;20405;-76
2023/08/30 02:51:07;;;;;;;19.97;14.43;;;13.00;99.90;;;;;;5091668;28;20398;-76
2023/08/30 02:53:33;;;;;;;17.53;13.97;;;12.80;99.90;;;;;;5090248;28;20390;-76
2023/08/30 02:55:59;;;;;;;18.50;14.40;;;13.00;99.90;;;;;;5082092;28;20420;-76
2023/08/30 02:58:24;;;;;;;16.42;13.50;;;12.80;99.90;;;;;;5110524;28;20408;-76
2023/08/30 03:00:50;;;;;;;17.35;13.73;;;12.80;99.90;;;;;;5110969;28;20412;-76
2023/08/30 03:03:16;;;;;;;18.13;13.27;;;13.00;99.90;;;;;;5093621;28;20444;-75
2023/08/30 03:05:41;;;;;;;17.10;13.90;;;12.90;99.90;;;;;;5110834;28;20427;-75
2023/08/30 03:08:07;;;;;;;19.47;14.27;;;12.80;99.90;;;;;;5110518;28;20396;-75
2023/08/30 03:10:33;;;;;;;18.83;13.55;;;13.00;99.90;;;;;;5109002;28;20416;-75
2023/08/30 03:12:58;;;;;;;18.67;13.52;;;12.70;99.90;;;;;;5110603;28;20389;-76
2023/08/30 03:15:24;;;;;;;18.17;14.37;;;12.60;99.90;;;;;;5074707;28;20421;-76
2023/08/30 03:17:50;;;;;;;18.47;14.03;;;12.60;99.90;;;;;;5073314;28;20402;-76
2023/08/30 03:20:16;;;;;;;19.37;14.53;;;;;;;;;;5090323;28;20462;-76
2023/08/30 03:22:42;;;;;;;17.60;13.57;;;12.60;99.90;;;;;;5124411;28;20502;-76
2023/08/30 03:25:09;;;;;;;17.73;13.87;;;;;;;;;;5107903;28;20796;-76
2023/08/30 03:27:35;;;;;;;17.80;14.05;;;12.50;99.90;;;;;;5140876;27;20415;-75
2023/08/30 03:30:02;;;;;;;19.27;14.48;;;12.40;99.90;;;;;;5149005;27;20408;-76
2023/08/30 03:32:28;;;;;;;18.27;14.80;;;;;;;;;;5148640;27;20396;-76
2023/08/30 03:34:54;;;;;;;18.50;14.75;;;12.50;99.90;;;;;;5114602;28;20400;-76
2023/08/30 03:37:20;;;;;;;21.20;14.30;;;;;;;;;;5114087;28;20923;-80
2023/08/30 03:39:46;;;;;;;20.95;15.00;;;;;;;;;;5115857;28;20404;-81
2023/08/30 03:42:12;;;;;;;18.38;14.57;;;;;;;;;;5099734;28;20739;-80
2023/08/30 03:44:39;;;;;;;19.65;14.65;;;;;;;;;;5117018;27;20393;-81
2023/08/30 03:47:05;;;;;;;17.92;13.93;;;12.10;99.90;;;;;;5116831;28;20420;-81
2023/08/30 03:49:31;;;;;;;20.88;14.60;;;;;;;;;;5116455;28;20429;-80
2023/08/30 03:51:57;;;;;;;18.05;14.32;;;;;;;;;;5099253;28;20392;-80
2023/08/30 03:54:23;;;;;;;21.00;14.33;;;;;;;;;;5106597;27;20758;-81
2023/08/30 03:56:48;;;;;;;20.00;14.10;;;12.50;99.90;;;;;;5095055;28;20452;-80
2023/08/30 03:59:14;;;;;;;18.60;14.15;;;;;;;;;;5095654;28;20975;-80
2023/08/30 04:01:40;;;;;;;18.75;14.07;;;12.30;99.90;;;;;;5104860;28;20448;-81
2023/08/30 04:04:06;;;;;;;18.88;14.20;;;;;;;;;;5099280;28;20638;-81
2023/08/30 04:06:32;;;;;;;19.45;14.13;;;12.50;99.90;;;;;;5099170;28;21042;-80
2023/08/30 04:08:58;;;;;;;19.70;14.10;;;;;;;;;;5113627;28;20408;-80
2023/08/30 04:11:24;;;;;;;19.13;14.55;;;;;;;;;;5095839;28;20390;-81
2023/08/30 04:13:52;;;;;;;16.60;13.65;;;;;;;;;;5095995;28;20410;-80
2023/08/30 04:16:18;;;;;;;19.27;14.00;;;12.60;99.90;;;;;;5095329;28;20963;-81
2023/08/30 04:18:43;;;;;;;17.27;13.55;;;12.60;99.90;;;;;;5078609;28;20398;-81
2023/08/30 04:21:09;;;;;;;18.08;13.18;;;12.60;99.90;;;;;;5077599;28;20394;-81
2023/08/30 04:23:35;;;;;;;18.08;13.65;;;12.70;99.90;;;;;;5095174;27;20418;-82
2023/08/30 04:26:00;;;;;;;20.23;14.52;;;12.70;99.90;;;;;;5078185;28;20769;-82
2023/08/30 04:28:27;;;;;;;17.03;13.27;;;;;;;;;;5097165;28;20398;-81
2023/08/30 04:30:56;;;;;;;18.33;13.50;;;12.80;99.90;;;;;;5095637;28;20974;-83
2023/08/30 04:33:23;;;;;;;17.00;12.77;;;12.70;99.90;;;;;;5103824;28;20492;-83
2023/08/30 04:35:53;;;;;;;15.82;13.30;;;12.70;99.90;;;;;;5150048;27;20445;-84
2023/08/30 04:38:19;;;;;;;16.73;13.55;;;12.90;99.90;;;;;;5086432;28;20405;-84
2023/08/30 04:40:46;;;;;;;16.25;12.80;;;12.90;99.90;;;;;;5137518;27;20496;-83
2023/08/30 04:43:12;;;;;;;15.93;12.40;;;;;;;;;;5116244;28;20424;-83
2023/08/30 04:45:38;;;;;;;15.23;11.90;;;12.80;99.90;;;;;;5115524;28;20461;-82
2023/08/30 04:48:04;;;;;;;16.67;12.80;;;;;;;;;;5119458;28;20392;-82
2023/08/30 04:50:30;;;;;;;16.52;11.98;;;12.90;99.90;;;;;;5170461;27;20397;-82
2023/08/30 04:52:57;;;;;;;15.88;11.70;;;;;;;;;;5169558;27;20399;-83
2023/08/30 04:55:28;;;;;;;17.48;12.25;;;12.70;99.90;;;;;;5121917;28;20404;-82
2023/08/30 04:57:53;;;;;;;17.38;11.95;;;13.00;99.90;;;;;;5116923;28;20396;-83
2023/08/30 05:00:19;;;;;;;15.70;11.93;;;13.00;99.90;;;;;;5099960;28;20469;-83
2023/08/30 05:02:46;;;;;;;16.88;11.93;;;13.10;99.90;;;;;;5099381;28;20416;-83
2023/08/30 05:05:12;;;;;;;15.38;11.70;;;;;;;;;;5150978;27;20399;-83
2023/08/30 05:07:39;;;;;;;16.92;12.32;;;;;;;;;;5115642;28;20400;-83
2023/08/30 05:10:06;;;;;;;17.77;12.07;;;13.10;99.90;;;;;;5097824;28;20800;-83
2023/08/30 05:12:33;;;;;;;15.07;11.95;;;13.10;99.90;;;;;;5100066;28;20745;-82
2023/08/30 05:14:59;;;;;;;18.90;12.18;;;;;;;;;;5116087;28;20396;-83
2023/08/30 05:17:25;;;;;;;14.83;11.63;;;13.20;99.90;;;;;;5115976;28;20404;-84
2023/08/30 05:19:51;;;;;;;16.57;11.77;;;13.30;99.90;;;;;;5098893;28;20501;-83
2023/08/30 05:22:17;;;;;;;17.97;11.43;;;;;;;;;;5115855;28;20395;-83
2023/08/30 05:24:42;;;;;;;16.15;12.00;;;13.30;99.90;;;;;;5113766;28;20496;-85
2023/08/30 05:27:08;;;;;;;14.33;11.57;;;13.30;99.90;;;;;;5098573;28;20417;-84
2023/08/30 05:29:34;;;;;;;15.40;11.00;;;13.40;99.90;;;;;;5098962;28;20894;-84
2023/08/30 05:31:59;;;;;;;14.63;10.57;;;13.30;99.90;;;;;;5098288;28;20459;-84
2023/08/30 05:34:26;;;;;;;16.35;11.10;;;13.40;99.90;;;;;;5082085;28;20396;-84
2023/08/30 05:36:53;;;;;;;13.88;10.82;;;13.20;99.90;;;;;;5098558;28;20847;-83
2023/08/30 05:39:19;;;;;;;14.73;10.77;;;;;;;;;;5134761;27;20436;-84
2023/08/30 05:41:44;;;;;;;15.52;11.23;;;13.40;99.90;;;;;;5095724;28;20409;-84
2023/08/30 05:44:10;;;;;;;13.33;9.90;;;13.50;99.90;;;;;;5094703;28;20751;-84
2023/08/30 05:46:36;;;;;;;12.93;9.60;;;13.50;99.90;;;;;;5095209;28;20421;-84
2023/08/30 05:49:02;;;;;;;14.63;9.97;;;13.60;99.90;;;;;;5093829;28;20398;-84
2023/08/30 05:51:28;;;;;;;13.15;10.52;;;13.60;99.90;;;;;;5111441;28;20743;-83
2023/08/30 05:53:54;;;;;;;13.25;10.50;;;13.60;99.90;;;;;;5128429;27;20416;-83
2023/08/30 05:56:20;;;;;;;13.77;10.25;;;13.70;99.90;;;;;;5079555;28;20461;-84
2023/08/30 05:58:46;;;;;;;14.85;10.98;;;13.50;99.90;;;;;;5094212;28;20401;-83
2023/08/30 06:01:11;;;;;;;13.45;10.88;;;13.60;99.90;;;;;;5088177;27;20419;-84
2023/08/30 06:03:37;;;;;;;13.68;10.45;;;13.80;99.90;;;;;;5096463;28;20484;-83
2023/08/30 06:06:03;;;;;;;13.93;11.00;;;13.80;99.90;;;;;;5109600;27;20475;-83
2023/08/30 06:08:29;;;;;;;13.27;10.80;;;13.80;99.90;;;;;;5075901;28;20406;-84
2023/08/30 06:10:54;;;;;;;16.63;11.10;;;13.90;99.90;;;;;;5110732;28;20421;-83
2023/08/30 06:13:20;;;;;;;14.30;11.07;;;13.90;99.90;;;;;;5077457;28;20398;-83
2023/08/30 06:15:50;;;;;;;15.50;10.90;;;13.50;99.90;;;;;;5093625;28;20822;-83
2023/08/30 06:18:16;;;;;;;14.73;10.70;;;13.90;99.90;;;;;;5076285;28;20915;-84
2023/08/30 06:20:42;;;;;;;15.80;10.37;;;13.90;99.90;;;;;;5078526;28;20445;-84
2023/08/30 06:23:08;;;;;;;14.03;10.53;;;13.70;99.90;;;;;;5093034;28;20406;-82
2023/08/30 06:25:33;;;;;;;14.07;10.60;;;13.90;99.90;;;;;;5093161;28;20429;-82
2023/08/30 06:28:01;;;;;;;14.55;10.27;;;13.90;99.90;;;;;;5070617;28;20913;-82
2023/08/30 06:30:29;;;;;;;13.38;9.85;;;13.90;99.90;;;;;;5093542;28;20547;-83
2023/08/30 06:32:55;;;;;;;17.35;10.43;;;13.80;99.90;;;;;;5093776;28;20402;-84
2023/08/30 06:35:21;;;;;;;14.23;10.23;;;14.10;99.90;;;;;;5093695;28;20406;-83
2023/08/30 06:37:46;;;;;;;14.63;10.48;;;13.90;99.90;;;;;;5146966;27;20420;-83
2023/08/30 06:40:12;;;;;;;14.80;10.27;;;14.00;99.90;;;;;;5097117;28;20405;-83
2023/08/30 06:42:38;;;;;;;13.80;10.07;;;14.00;99.90;;;;;;5096831;28;20453;-81
2023/08/30 06:45:04;;;;;;;14.50;10.10;;;14.00;99.90;;;;;;5113821;28;20426;-83
2023/08/30 06:47:33;;;;;;;13.57;9.80;;;14.20;99.90;;;;;;5086865;28;20466;-83
2023/08/30 06:50:00;;;;;;;13.35;9.75;;;14.00;99.90;;;;;;5076882;28;20402;-83
2023/08/30 06:52:26;;;;;;;12.65;9.45;;;14.10;99.90;;;;;;5110354;28;20796;-84
2023/08/30 06:54:52;;;;;;;14.82;10.25;;;14.10;99.90;;;;;;5126866;27;20454;-84
2023/08/30 06:57:17;;;;;;;14.63;10.48;;;14.30;99.90;;;;;;5093592;28;20398;-84
2023/08/30 06:59:43;;;;;;;13.38;9.88;;;14.50;99.90;;;;;;5060535;28;20765;-83
2023/08/30 07:02:09;;;;;;;13.90;9.68;;;14.00;99.90;;;;;;5130768;27;20416;-84
2023/08/30 07:04:35;;;;;;;11.80;9.10;;;14.30;99.90;;;;;;5101186;28;20398;-84
2023/08/30 07:07:00;;;;;;;14.10;9.07;;;14.50;99.90;;;;;;5083647;28;20473;-83
2023/08/30 07:09:29;;;;;;;13.23;9.10;;;14.50;99.90;;;;;;5117712;27;20396;-83
2023/08/30 07:11:58;;;;;;;13.40;9.50;;;14.50;99.90;;;;;;5117627;28;20400;-84
2023/08/30 07:14:24;;;;;;;11.60;8.43;;;14.60;99.90;;;;;;5099639;28;20487;-83
2023/08/30 07:16:50;;;;;;;13.10;8.93;;;14.90;99.90;;;;;;5100754;28;20451;-84
2023/08/30 07:19:19;;;;;;;12.80;8.43;;;14.90;99.90;;;;;;5113919;28;20532;-83
2023/08/30 07:21:44;;;;;;;11.85;8.27;;;15.00;99.90;;;;;;5116067;28;20872;-83
2023/08/30 07:24:11;;;;;;;12.00;8.43;;;15.00;99.90;;;;;;5101326;28;20398;-84
2023/08/30 07:26:36;;;;;;;11.68;8.77;;;15.10;99.90;;;;;;5103742;28;20436;-83
2023/08/30 07:29:04;;;;;;;12.13;8.53;;;15.10;99.90;;;;;;5117277;28;20462;-83
2023/08/30 07:31:31;;;;;;;14.57;8.52;;;15.20;99.90;;;;;;5134785;27;20411;-83
2023/08/30 07:33:58;;;;;;;11.57;7.80;;;15.40;99.90;;;;;;5115392;28;20435;-83
2023/08/30 07:36:23;;;;;;;14.38;8.45;;;15.50;99.90;;;;;;5112786;28;20946;-84
2023/08/30 07:38:49;;;;;;;12.68;8.60;;;15.40;99.90;;;;;;5096613;28;20418;-83
2023/08/30 07:41:15;;;;;;;11.55;8.23;;;15.90;99.90;;;;;;5116184;28;20427;-82
2023/08/30 07:43:41;;;;;;;12.20;8.97;;;15.50;99.90;;;;;;5109111;28;20404;-82
2023/08/30 07:46:07;;;;;;;12.00;8.43;;;15.70;99.90;;;;;;5120109;28;20453;-82
2023/08/30 07:48:32;;;;;;;12.90;8.83;;;15.50;99.90;;;;;;5144457;27;20768;-83
2023/08/30 07:50:58;;;;;;;12.40;8.50;;;15.90;99.90;;;;;;5133080;27;20400;-84
2023/08/30 07:53:24;;;;;;;13.98;9.02;;;16.10;99.90;;;;;;5079815;28;20504;-84
2023/08/30 07:55:50;;;;;;;12.18;8.07;;;16.20;99.90;;;;;;5095388;28;20421;-83
2023/08/30 07:58:17;;;;;;;13.27;9.27;;;16.40;99.90;;;;;;5114001;27;20389;-82
2023/08/30 08:00:43;;;;;;;14.70;8.75;;;16.40;99.90;;;;;;5102701;28;20420;-82
2023/08/30 08:03:09;;;;;;;12.98;8.98;;;16.50;99.90;;;;;;5134314;28;20392;-84
2023/08/30 08:05:36;;;;;;;14.55;9.00;;;16.40;99.90;;;;;;5093840;27;20776;-82
2023/08/30 08:08:02;;;;;;;11.55;8.27;;;16.10;99.90;;;;;;5113113;28;20413;-82
2023/08/30 08:10:34;;;;;;;13.68;9.05;;;16.40;99.90;;;;;;5113961;28;20899;-83
2023/08/30 08:13:00;;;;;;;14.52;9.27;;;16.20;99.90;;;;;;5095630;28;20437;-83
2023/08/30 08:15:26;;;;;;;11.75;8.13;;;16.10;99.90;;;;;;5096901;28;20431;-83
2023/08/30 08:17:52;;;;;;;11.80;8.65;;;16.40;99.90;;;;;;5096695;28;20871;-84
2023/08/30 08:20:18;;;;;;;12.10;8.55;;;16.30;99.90;;;;;;5094776;28;20540;-84
2023/08/30 08:22:43;;;;;;;11.73;8.50;;;16.20;99.90;;;;;;5097436;28;20478;-83
2023/08/30 08:25:09;;;;;;;14.57;9.00;;;16.30;99.90;;;;;;5097611;28;20892;-83
2023/08/30 08:27:36;;;;;;;12.50;8.52;;;16.40;99.90;;;;;;5097008;28;20403;-82
2023/08/30 08:30:04;;;;;;;12.95;8.20;;;16.50;99.90;;;;;;5113760;28;20400;-83
2023/08/30 08:32:30;;;;;;;11.90;8.50;;;16.70;99.90;;;;;;5096539;28;20396;-82
2023/08/30 08:34:56;;;;;;;12.40;8.43;;;16.70;99.90;;;;;;5094498;28;20411;-82
2023/08/30 08:37:23;;;;;;;10.77;7.72;;;16.70;99.90;;;;;;5110460;27;20427;-83
2023/08/30 08:39:50;;;;;;;11.30;7.82;;;16.50;99.90;;;;;;5113508;28;20420;-83
2023/08/30 08:42:20;;;;;;;12.02;7.80;;;16.70;99.90;;;;;;5113285;28;20408;-84
2023/08/30 08:44:52;;;;;;;11.77;8.18;;;16.70;99.90;;;;;;5113191;28;20896;-83
2023/08/30 08:47:20;;;;;;;13.68;7.80;;;16.60;99.90;;;;;;5112892;28;20495;-83
2023/08/30 08:49:47;;;;;;;9.90;7.60;;;16.60;99.90;;;;;;5113282;28;20396;-83
2023/08/30 08:52:16;;;;;;;11.65;7.78;;;16.70;99.90;;;;;;5080364;28;20456;-83
2023/08/30 08:54:43;;;;;;;12.02;7.78;;;16.70;99.90;;;;;;5094703;28;20540;-83
2023/08/30 08:57:09;;;;;;;11.48;7.35;;;16.20;99.90;;;;;;5134498;27;20398;-83
2023/08/30 08:59:35;;;;;;;11.25;7.45;;;16.60;99.90;;;;;;5098701;27;20445;-84
2023/08/30 09:02:01;;;;;;;11.82;7.75;;;16.70;99.90;;;;;;5095419;28;20455;-83
2023/08/30 09:04:30;;;;;;;11.00;7.68;;;16.40;99.90;;;;;;5129783;27;20398;-83
2023/08/30 09:06:58;;;;;;;11.98;7.82;;;16.50;99.90;;;;;;5094149;28;20437;-83
2023/08/30 09:09:24;;;;;;;11.23;7.43;;;16.50;99.90;;;;;;5085912;28;20421;-83
2023/08/30 09:11:50;;;;;;;12.52;7.68;;;16.40;99.90;;;;;;5080614;28;20400;-83
2023/08/30 09:14:15;;;;;;;10.90;7.80;;;16.50;99.90;;;;;;5097540;28;20393;-84
2023/08/30 09:16:42;;;;;;;10.70;7.88;;;16.50;99.90;;;;;;5097933;28;20409;-84
2023/08/30 09:19:10;;;;;;;11.45;8.40;;;16.60;99.90;;;;;;5098061;28;20492;-83
2023/08/30 09:21:36;;;;;;;11.82;7.70;;;16.70;99.90;;;;;;5115826;28;20424;-83
2023/08/30 09:24:04;;;;;;;11.10;8.05;;;16.40;99.90;;;;;;5101776;27;20412;-84
2023/08/30 09:26:31;;;;;;;11.27;7.75;;;16.60;99.90;;;;;;5079825;28;20420;-83
2023/08/30 09:29:08;;;;;;;13.30;8.10;;;16.60;99.90;;;;;;5114528;28;20412;-83
2023/08/30 09:31:42;;;;;;;12.23;7.88;;;16.80;99.90;;;;;;5112989;28;21472;-84
2023/08/30 09:34:08;;;;;;;10.73;7.43;;;16.20;99.90;;;;;;5080173;28;20495;-76
2023/08/30 09:36:40;;;;;;;11.07;7.85;;;17.00;99.90;;;;;;5111581;28;20409;-76
2023/08/30 09:39:09;;;;;;;12.65;7.13;;;17.00;99.90;;;;;;5092543;28;20421;-75
2023/08/30 09:41:36;;;;;;;11.63;7.32;;;16.90;99.90;;;;;;5092277;28;20751;-75
2023/08/30 09:44:10;;;;;;;10.07;6.97;;;16.90;99.90;;;;;;5092054;28;20484;-77
2023/08/30 09:46:45;;;;;;;9.80;7.00;;;16.80;99.90;;;;;;5075024;28;20439;-76
2023/08/30 09:49:11;;;;;;;8.30;6.78;;;16.40;99.90;;;;;;5092550;28;20758;-76
2023/08/30 09:51:42;;;;;;;9.55;6.40;;;16.80;99.90;;;;;;5092180;28;20410;-77
2023/08/30 09:54:15;;;;;;;8.77;6.00;;;16.60;99.90;;;;;;5125613;27;20409;-77
2023/08/30 09:56:43;;;;;;;8.10;5.60;;;16.60;99.90;;;;;;5091244;28;20405;-77
2023/08/30 09:59:14;;;;;;;10.55;6.38;;;16.90;99.90;;;;;;5125489;27;20474;-77
2023/08/30 10:01:41;;;;;;;8.18;6.20;;;17.00;99.90;;;;;;5074829;28;20412;-76
2023/08/30 10:04:10;;;;;;;9.27;6.15;;;16.90;99.90;;;;;;5057625;28;20405;-77
2023/08/30 10:06:37;;;;;;;8.60;6.20;;;16.50;99.90;;;;;;5104469;28;20432;-77
2023/08/30 10:09:07;;;;;;;7.18;5.65;;;16.60;99.90;;;;;;5111556;28;20415;-76
2023/08/30 10:11:36;;;;;;;9.18;6.43;;;16.40;99.90;;;;;;5111469;28;20887;-77
2023/08/30 10:14:06;;;;;;;8.68;6.32;;;16.30;99.90;;;;;;5111225;28;20405;-77
2023/08/30 10:16:42;;;;;;;10.38;7.38;;;16.60;99.90;;;;;;5111310;28;20481;-76
2023/08/30 10:19:31;;;;;;;9.03;6.83;;;16.40;99.90;;;;;;5109432;28;20449;-77
2023/08/30 10:22:14;;;;;;;9.65;7.07;;;16.50;99.90;;;;;;5103060;28;20458;-76
2023/08/30 10:24:46;;;;;;;10.13;6.75;;;16.60;99.90;;;;;;5094249;28;20908;-76
2023/08/30 10:27:14;;;;;;;9.65;6.47;;;16.40;99.90;;;;;;5110947;28;20775;-77
2023/08/30 10:29:42;;;;;;;9.35;6.95;;;16.30;99.90;;;;;;5145344;27;20408;-76
2023/08/30 10:32:08;;;;;;;9.10;6.50;;;16.30;99.90;;;;;;5072868;28;20413;-76
2023/08/30 10:34:34;;;;;;;10.40;6.65;;;16.60;99.90;;;;;;5107118;28;20485;-77
2023/08/30 10:37:02;;;;;;;8.43;6.43;;;16.80;99.90;;;;;;5108019;28;20394;-76
2023/08/30 10:39:38;;;;;;;8.02;5.88;;;17.10;99.90;;;;;;5088217;28;20460;-75
2023/08/30 10:42:12;;;;;;;9.82;5.65;;;17.00;99.90;;;;;;5092364;28;20837;-76
2023/08/30 10:44:57;;;;;;;8.93;5.78;;;17.00;99.90;;;;;;5094484;28;20415;-76
2023/08/30 10:47:31;;;;;;;7.93;5.05;;;16.90;99.90;;;;;;5095002;28;20934;-77
2023/08/30 10:50:00;;;;;;;7.10;5.35;;;17.40;99.90;;;;;;5078051;28;20407;-77
2023/08/30 10:52:27;;;;;;;7.60;4.80;;;17.20;99.90;;;;;;5096118;28;20910;-77
2023/08/30 10:55:04;;;;;;;6.22;4.28;;;17.10;99.90;;;;;;5106732;28;20418;-76
2023/08/30 10:57:29;;;;;;;6.68;4.20;;;17.30;99.90;;;;;;5122617;28;20447;-76
2023/08/30 11:00:04;;;;;;;5.70;3.92;;;17.20;99.90;;;;;;5077629;28;20447;-77
2023/08/30 11:02:32;;;;;;;5.15;3.80;;;17.30;99.90;;;;;;5094264;28;20479;-74
2023/08/30 11:04:58;;;;;;;7.50;4.40;;;17.50;99.90;;;;;;5128377;28;20422;-76
2023/08/30 11:07:27;;;;;;;6.93;4.75;;;17.10;99.90;;;;;;5111550;28;20412;-76
2023/08/30 11:09:53;;;;;;;6.65;4.40;;;17.10;99.90;;;;;;5124808;28;20420;-75
2023/08/30 11:12:22;;;;;;;7.05;4.72;;;17.40;99.90;;;;;;5121738;28;20422;-77
2023/08/30 11:14:48;;;;;;;7.32;5.13;;;17.50;99.90;;;;;;5078967;28;20466;-77
2023/08/30 11:17:17;;;;;;;9.57;5.13;;;17.20;99.90;;;;;;5095266;28;20392;-77
2023/08/30 11:19:43;;;;;;;8.57;5.13;;;17.10;99.90;;;;;;5077263;28;20918;-76
2023/08/30 11:22:09;;;;;;;8.73;6.10;;;17.50;99.90;;;;;;5110883;28;20426;-76
2023/08/30 11:24:35;;;;;;;6.78;5.05;;;17.40;99.90;;;;;;5115162;27;20410;-76
2023/08/30 11:27:01;;;;;;;8.15;5.38;;;17.50;99.90;;;;;;5073172;28;20917;-76
2023/08/30 11:29:27;;;;;;;7.78;5.70;;;18.00;99.90;;;;;;5073199;28;20410;-82
2023/08/30 11:31:52;;;;;;;8.32;6.18;;;17.90;99.90;;;;;;5090223;28;20398;-83
2023/08/30 11:34:22;;;;;;;7.30;5.50;;;17.60;99.90;;;;;;5073284;28;20405;-84
2023/08/30 11:36:49;;;;;;;8.90;5.97;;;17.90;99.90;;;;;;5090148;28;20412;-83
2023/08/30 11:39:20;;;;;;;8.15;5.30;;;17.60;99.90;;;;;;5109830;28;20481;-83
2023/08/30 11:41:46;;;;;;;6.53;4.90;;;18.10;99.90;;;;;;5094360;28;20439;-77
2023/08/30 11:44:12;;;;;;;6.88;5.00;;;18.00;99.90;;;;;;5127474;27;20408;-76
2023/08/30 11:46:38;;;;;;;8.63;5.67;;;17.80;99.90;;;;;;5094857;28;20416;-76
2023/08/30 11:49:04;;;;;;;7.83;5.67;;;17.70;99.90;;;;;;5111230;28;20470;-77
2023/08/30 11:51:31;;;;;;;7.65;5.57;;;17.20;99.90;;;;;;5113839;28;20435;-76
2023/08/30 11:53:57;;;;;;;9.23;5.60;;;17.20;99.90;;;;;;5131345;27;20948;-77
2023/08/30 11:56:23;;;;;;;9.18;6.40;;;16.90;99.90;;;;;;5095300;28;20419;-76
2023/08/30 11:58:51;;;;;;;10.23;6.82;;;16.70;99.90;;;;;;5113670;28;20404;-76
2023/08/30 12:01:18;;;;;;;9.18;7.45;;;16.70;99.90;;;;;;5113534;28;20430;-76
2023/08/30 12:03:50;;;;;;;9.85;7.35;;;16.30;99.90;;;;;;5101494;27;20440;-77
2023/08/30 12:06:16;;;;;;;12.13;7.87;;;16.10;99.90;;;;;;5076580;28;20422;-77
2023/08/30 12:08:42;;;;;;;11.03;8.87;;;16.30;99.90;;;;;;5093104;28;20743;-77
2023/08/30 12:11:20;;;;;;;10.87;8.37;;;16.30;99.90;;;;;;5076180;28;20430;-77
2023/08/30 12:13:47;;;;;;;11.13;8.52;;;16.10;99.90;;;;;;5093272;28;20437;-77
2023/08/30 12:16:20;;;;;;;10.27;8.27;;;16.10;99.90;;;;;;5093078;28;20916;-77
2023/08/30 12:18:46;;;;;;;11.52;8.73;;;16.30;99.90;;;;;;5088870;28;20416;-78
2023/08/30 12:21:14;;;;;;;12.40;8.38;;;16.60;99.90;;;;;;5096245;28;20396;-77
2023/08/30 12:23:39;;;;;;;9.50;8.10;;;16.20;99.90;;;;;;5112718;28;20416;-77
2023/08/30 12:26:06;;;;;;;11.02;8.85;;;16.20;99.90;;;;;;5112864;27;20423;-78
2023/08/30 12:28:34;;;;;;;11.27;8.85;;;15.90;99.90;;;;;;5111778;27;20406;-77
2023/08/30 12:31:01;;;;;;;12.57;9.77;;;16.00;99.90;;;;;;5092885;28;20435;-77
2023/08/30 12:33:28;;;;;;;13.82;11.30;;;15.80;99.90;;;;;;5075820;28;20405;-78
2023/08/30 12:35:54;;;;;;;15.18;11.77;;;15.80;99.90;;;;;;5109910;28;20402;-78
2023/08/30 12:38:20;;;;;;;14.73;11.07;;;15.50;99.90;;;;;;5109683;27;20406;-77
2023/08/30 12:40:48;;;;;;;15.60;12.35;;;15.70;99.90;;;;;;5092252;27;20401;-76